Time;durP1;ratioP1;P1;durP2;ratioP2;P2;SDS_P1;SDS_P2;PMS_P1;PMS_P2;Temp;Humidity;BMP_temperature;BMP_pressure;BME280_temperature;BME280_humidity;BME280_pressure;Samples;Min_cycle;Max_cycle;Signal;HPM_P1;HPM_P2
2023/08/06 00:01:25;;;;;;;3.42;2.47;;;;;;;19.68;67.01;93720.47;5127075;27;20023;-77
2023/08/06 00:03:50;;;;;;;3.55;2.45;;;;;;;19.71;69.67;93740.34;5124104;28;20031;-77
2023/08/06 00:06:16;;;;;;;5.70;2.90;;;;;;;19.76;68.24;93732.63;5130545;28;20107;-78
2023/08/06 00:08:41;;;;;;;5.07;2.80;;;;;;;19.75;68.58;93723.06;5111570;28;20045;-77
2023/08/06 00:11:07;;;;;;;5.68;3.55;;;;;;;19.75;69.72;93716.00;5131600;27;20055;-77
2023/08/06 00:13:32;;;;;;;5.47;2.80;;;;;;;19.55;69.63;93702.88;5113368;28;20027;-77
2023/08/06 00:16:11;;;;;;;4.38;2.60;;;;;;;19.73;69.22;93715.41;5111263;28;20072;-77
2023/08/06 00:18:37;;;;;;;4.65;2.60;;;;;;;19.76;70.76;93707.06;5104694;28;20466;-77
2023/08/06 00:21:02;;;;;;;3.70;2.70;;;;;;;19.75;69.66;93704.63;5096176;28;20033;-78
2023/08/06 00:23:28;;;;;;;5.60;2.70;;;;;;;19.72;70.23;93691.88;5111481;28;20019;-78
2023/08/06 00:25:53;;;;;;;5.03;2.63;;;;;;;19.62;69.41;93687.06;5091796;28;20036;-77
2023/08/06 00:28:19;;;;;;;4.10;3.03;;;;;;;19.49;71.50;93703.69;5093871;28;20055;-78
2023/08/06 00:30:44;;;;;;;4.88;2.63;;;;;;;19.10;72.73;93697.53;5109760;28;20027;-78
2023/08/06 00:33:09;;;;;;;4.20;2.55;;;;;;;19.17;71.26;93690.44;5111121;28;20028;-78
2023/08/06 00:35:35;;;;;;;3.78;2.70;;;;;;;19.39;73.03;93692.81;5085808;28;20449;-78
2023/08/06 00:38:00;;;;;;;5.22;3.42;;;;;;;19.32;72.65;93676.22;5076620;28;20024;-77
2023/08/06 00:40:28;;;;;;;5.63;3.03;;;;;;;19.39;73.49;93691.00;5076688;28;20031;-78
2023/08/06 00:42:53;;;;;;;4.15;3.05;;;;;;;19.17;74.44;93674.66;5093111;28;20023;-78
2023/08/06 00:45:19;;;;;;;3.90;3.08;;;;;;;19.32;73.27;93687.56;5091211;28;20489;-78
2023/08/06 00:47:45;;;;;;;5.63;3.25;;;;;;;19.37;72.67;93684.31;5111659;28;20283;-78
2023/08/06 00:50:11;;;;;;;5.10;3.13;;;;;;;19.46;72.67;93675.16;5092580;28;20062;-78
2023/08/06 00:52:36;;;;;;;7.53;2.90;;;;;;;19.35;74.00;93688.97;5120021;28;20023;-78
2023/08/06 00:55:02;;;;;;;5.00;3.03;;;;;;;19.25;72.42;93657.00;5130047;28;20528;-78
2023/08/06 00:57:27;;;;;;;5.45;3.13;;;;;;;19.30;72.61;93671.16;5118720;28;20034;-77
2023/08/06 00:59:53;;;;;;;3.97;2.70;;;;;;;19.31;73.63;93650.94;5095505;28;20027;-78
2023/08/06 01:02:18;;;;;;;4.60;3.00;;;;;;;19.35;73.02;93660.81;5105383;27;20039;-77
2023/08/06 01:04:44;;;;;;;4.80;2.90;;;;;;;19.39;72.55;93658.59;5135286;27;20035;-77
2023/08/06 01:07:19;;;;;;;4.35;3.00;;;;;;;19.37;72.71;93657.97;5109662;28;20046;-77
2023/08/06 01:09:45;;;;;;;3.83;2.88;;;;;;;19.38;72.72;93649.88;5113320;28;20035;-77
2023/08/06 01:12:41;;;;;;;4.15;2.95;;;;;;;19.52;73.68;93637.44;5130045;27;20126;-77
2023/08/06 01:15:23;;;;;;;3.60;2.80;;;;;;;19.64;72.79;93627.88;5116282;27;20046;-77
2023/08/06 01:17:48;;;;;;;4.68;3.00;;;;;;;19.55;72.48;93617.78;5124686;27;20036;-78
2023/08/06 01:20:14;;;;;;;3.97;3.05;;;;;;;19.56;73.48;93636.03;5114420;27;20054;-77
2023/08/06 01:22:39;;;;;;;5.57;2.78;;;;;;;19.48;73.47;93617.81;5098866;27;20106;-78
2023/08/06 01:25:05;;;;;;;4.25;2.90;;;;;;;19.54;73.87;93622.25;5116203;27;20232;-78
2023/08/06 01:27:35;;;;;;;5.40;3.47;;;;;;;19.46;72.55;93622.50;5127423;27;20028;-78
2023/08/06 01:30:12;;;;;;;3.80;3.00;;;;;;;19.42;72.81;93613.41;5109627;27;20428;-78
2023/08/06 01:32:38;;;;;;;4.85;3.40;;;;;;;19.16;73.95;93596.69;5133122;27;20118;-78
2023/08/06 01:35:04;;;;;;;4.85;3.30;;;;;;;19.24;74.31;93626.44;5115867;27;20040;-78
2023/08/06 01:37:30;;;;;;;5.47;3.33;;;;;;;19.25;74.35;93633.31;5098971;27;20031;-78
2023/08/06 01:39:55;;;;;;;4.53;3.10;;;;;;;19.13;74.46;93630.53;5112670;28;20036;-78
2023/08/06 01:42:21;;;;;;;5.15;3.35;;;;;;;19.23;74.61;93606.41;5095608;28;20459;-78
2023/08/06 01:44:46;;;;;;;3.72;3.05;;;;;;;19.11;74.29;93579.91;5114173;28;20035;-78
2023/08/06 01:47:12;;;;;;;4.65;3.17;;;;;;;19.34;74.83;93611.00;5122474;27;20039;-78
2023/08/06 01:49:37;;;;;;;3.35;2.78;;;;;;;19.37;74.10;93600.88;5114814;27;20043;-78
2023/08/06 01:52:03;;;;;;;4.22;2.80;;;;;;;19.45;73.22;93606.91;5123624;27;20438;-77
2023/08/06 01:54:28;;;;;;;4.50;3.03;;;;;;;19.50;73.12;93607.06;5134339;27;20481;-78
2023/08/06 01:56:54;;;;;;;4.38;3.20;;;;;;;19.43;73.95;93605.28;5122592;27;20528;-78
2023/08/06 01:59:19;;;;;;;3.75;2.70;;;;;;;19.46;73.00;93604.06;5079111;28;20060;-78
2023/08/06 02:01:45;;;;;;;3.40;2.72;;;;;;;19.37;73.31;93607.97;5112255;28;20043;-78
2023/08/06 02:04:10;;;;;;;3.50;2.55;;;;;;;19.60;73.08;93605.59;5112056;28;20027;-78
2023/08/06 02:06:35;;;;;;;3.58;2.85;;;;;;;19.57;72.69;93608.66;5107035;28;20035;-78
2023/08/06 02:09:01;;;;;;;4.70;3.10;;;;;;;19.49;72.76;93611.53;5114110;27;20077;-77
2023/08/06 02:11:26;;;;;;;5.18;2.80;;;;;;;19.44;73.31;93603.44;5094327;28;20485;-77
2023/08/06 02:13:52;;;;;;;4.00;3.13;;;;;;;19.28;74.19;93599.50;5095978;27;20046;-78
2023/08/06 02:16:17;;;;;;;5.68;3.20;;;;;;;19.39;74.83;93598.03;5115262;27;20023;-77
2023/08/06 02:18:42;;;;;;;5.10;3.05;;;;;;;19.25;74.83;93605.19;5113376;27;20410;-78
2023/08/06 02:21:08;;;;;;;4.70;2.92;;;;;;;19.02;74.49;93608.28;5094644;28;20539;-78
2023/08/06 02:23:33;;;;;;;8.63;4.28;;;;;;;19.07;75.41;93584.78;5129824;27;20036;-78
2023/08/06 02:26:00;;;;;;;6.20;3.80;;;;;;;18.95;76.53;93610.16;5114923;27;20035;-77
2023/08/06 02:28:25;;;;;;;9.20;3.70;;;;;;;18.93;76.86;93620.06;5119246;27;20042;-77
2023/08/06 02:30:51;;;;;;;4.57;3.22;;;;;;;18.80;76.61;93628.78;5094491;28;20028;-77
2023/08/06 02:33:16;;;;;;;5.00;3.28;;;;;;;19.00;77.72;93627.94;5106642;27;20408;-77
2023/08/06 02:35:42;;;;;;;5.70;3.15;;;;;;;18.90;76.83;93631.00;5114905;27;20100;-78
2023/08/06 02:38:07;;;;;;;5.40;3.72;;;;;;;18.58;77.25;93601.88;5119705;27;20024;-77
2023/08/06 02:40:32;;;;;;;4.00;3.35;;;;;;;19.00;76.69;93636.66;5112382;27;20489;-78
2023/08/06 02:42:58;;;;;;;7.20;3.70;;;;;;;19.10;76.20;93639.63;5111931;27;20030;-78
2023/08/06 02:45:23;;;;;;;5.68;3.40;;;;;;;19.27;77.60;93642.63;5114680;27;20039;-78
2023/08/06 02:47:49;;;;;;;6.38;3.80;;;;;;;19.08;77.06;93646.94;5111560;28;20035;-78
2023/08/06 02:50:14;;;;;;;5.80;3.50;;;;;;;19.08;77.07;93652.19;5123384;27;20051;-77
2023/08/06 02:52:40;;;;;;;5.30;3.60;;;;;;;19.26;77.16;93641.00;5130730;27;20027;-78
2023/08/06 02:55:06;;;;;;;5.97;3.40;;;;;;;18.81;77.50;93598.84;5132756;27;20040;-78
2023/08/06 02:57:32;;;;;;;5.53;3.63;;;;;;;18.39;81.00;93608.81;5128637;27;20066;-77
2023/08/06 02:59:57;;;;;;;6.32;3.47;;;;;;;18.42;79.23;93591.81;5094936;28;20035;-77
2023/08/06 03:02:23;;;;;;;5.90;3.20;;;;;;;18.46;79.21;93622.75;5112163;28;20024;-78
2023/08/06 03:04:48;;;;;;;4.70;3.58;;;;;;;18.51;80.59;93609.00;5110957;28;20411;-78
2023/08/06 03:07:13;;;;;;;4.70;3.40;;;;;;;18.61;80.16;93590.97;5080615;27;20054;-77
2023/08/06 03:09:39;;;;;;;4.20;3.58;;;;;;;18.58;79.31;93587.94;5110361;28;20184;-77
2023/08/06 03:12:05;;;;;;;5.63;3.40;;;;;;;18.23;81.30;93586.38;5093545;28;20039;-78
2023/08/06 03:14:30;;;;;;;8.75;3.63;;;;;;;17.73;82.38;93567.53;5121277;27;20084;-78
2023/08/06 03:16:56;;;;;;;5.30;3.75;;;;;;;18.05;81.65;93594.06;5113834;27;20031;-78
2023/08/06 03:19:21;;;;;;;4.82;3.45;;;;;;;18.19;81.90;93605.38;5131124;27;20092;-78
2023/08/06 03:21:46;;;;;;;4.88;3.15;;;;;;;18.36;81.92;93579.47;5113306;27;20562;-78
2023/08/06 03:24:13;;;;;;;7.43;3.65;;;;;;;18.36;81.64;93577.69;5114316;27;20105;-78
2023/08/06 03:26:39;;;;;;;6.55;3.42;;;;;;;18.60;81.57;93578.84;5105712;28;20027;-77
2023/08/06 03:29:04;;;;;;;4.85;3.35;;;;;;;18.38;80.44;93561.69;5095769;27;20022;-77
2023/08/06 03:31:29;;;;;;;4.15;3.28;;;;;;;18.72;80.19;93621.91;5124554;27;20035;-78
2023/08/06 03:33:55;;;;;;;5.65;3.20;;;;;;;18.77;80.30;93638.91;5130968;27;20023;-78
2023/08/06 03:36:20;;;;;;;5.57;3.20;;;;;;;18.39;80.62;93608.81;5113780;27;20050;-79
2023/08/06 03:38:46;;;;;;;6.85;3.17;;;;;;;18.57;79.94;93608.16;5119471;27;20023;-78
2023/08/06 03:41:11;;;;;;;8.32;4.03;;;;;;;18.55;81.11;93607.56;5091863;28;20038;-78
2023/08/06 03:43:37;;;;;;;8.32;3.30;;;;;;;18.66;81.11;93609.56;5108150;28;20481;-78
2023/08/06 03:46:02;;;;;;;9.75;3.72;;;;;;;18.80;80.50;93628.78;5108174;28;20236;-78
2023/08/06 03:48:27;;;;;;;7.45;2.70;;;;;;;18.53;79.88;93604.34;5108456;28;20039;-78
2023/08/06 03:50:53;;;;;;;5.30;2.30;;;;;;;18.49;79.28;93593.41;5108926;28;20036;-78
2023/08/06 03:53:20;;;;;;;5.18;2.45;;;;;;;18.59;79.06;93611.41;5123659;27;20047;-77
2023/08/06 03:55:45;;;;;;;5.10;2.25;;;;;;;18.78;78.80;93641.34;5127425;28;20076;-77
2023/08/06 03:58:11;;;;;;;6.30;1.90;;;;;;;18.86;78.65;93651.66;5093115;28;20428;-77
2023/08/06 04:00:36;;;;;;;2.33;1.60;;;;;;;18.81;78.17;93671.72;5110165;28;20035;-77
2023/08/06 04:03:01;;;;;;;3.50;2.10;;;;;;;18.81;78.14;93671.72;5117541;27;20034;-77
2023/08/06 04:05:27;;;;;;;3.80;2.15;;;;;;;18.57;78.72;93647.63;5106642;28;20039;-76
2023/08/06 04:07:52;;;;;;;3.33;2.20;;;;;;;18.54;78.73;93632.25;5102958;28;20023;-77
2023/08/06 04:10:18;;;;;;;3.05;2.10;;;;;;;18.70;78.47;93623.94;5108141;28;20436;-77
2023/08/06 04:12:43;;;;;;;3.35;2.13;;;;;;;18.80;78.70;93605.13;5107541;28;20039;-78
2023/08/06 04:15:08;;;;;;;7.38;2.58;;;;;;;18.74;79.08;93596.22;5107392;28;20035;-77
2023/08/06 04:17:34;;;;;;;6.10;2.58;;;;;;;18.89;79.06;93613.63;5113240;28;20042;-77
2023/08/06 04:19:59;;;;;;;5.90;2.28;;;;;;;19.05;78.71;93622.84;5124669;28;20038;-77
2023/08/06 04:22:25;;;;;;;3.95;1.85;;;;;;;19.04;77.48;93626.50;5109062;28;20032;-77
2023/08/06 04:24:50;;;;;;;6.00;1.98;;;;;;;18.81;77.99;93605.94;5116495;28;20110;-78
2023/08/06 04:27:16;;;;;;;5.03;2.40;;;;;;;18.82;78.18;93604.91;5092497;28;20023;-77
2023/08/06 04:29:42;;;;;;;3.97;2.00;;;;;;;18.91;78.12;93609.72;5097208;28;20028;-78
2023/08/06 04:32:08;;;;;;;3.50;1.85;;;;;;;18.86;77.90;93611.38;5116558;28;20432;-77
2023/08/06 04:34:34;;;;;;;2.47;1.70;;;;;;;18.89;77.59;93598.63;5105747;28;20020;-77
2023/08/06 04:37:00;;;;;;;3.13;1.83;;;;;;;19.05;78.00;93592.06;5112535;28;20557;-77
2023/08/06 04:39:25;;;;;;;2.53;1.65;;;;;;;18.99;77.93;93585.03;5102644;27;20500;-77
2023/08/06 04:41:50;;;;;;;2.28;1.60;;;;;;;18.86;78.34;93583.25;5090334;28;20028;-77
2023/08/06 04:44:16;;;;;;;3.90;1.52;;;;;;;19.06;78.64;93582.38;5112618;27;20034;-77
2023/08/06 04:46:41;;;;;;;4.45;1.92;;;;;;;19.02;77.53;93560.13;5094876;28;20599;-78
2023/08/06 04:49:07;;;;;;;4.65;1.67;;;;;;;19.08;78.04;93569.81;5110828;27;20050;-78
2023/08/06 04:51:32;;;;;;;6.30;2.00;;;;;;;19.09;78.70;93566.97;5120176;27;20043;-78
2023/08/06 04:53:57;;;;;;;2.22;1.83;;;;;;;19.05;79.72;93560.50;5115233;27;20032;-77
2023/08/06 04:56:23;;;;;;;3.45;2.00;;;;;;;19.21;78.29;93546.06;5077726;28;20035;-78
2023/08/06 04:58:49;;;;;;;2.50;1.90;;;;;;;19.29;78.06;93560.81;5094826;28;20039;-78
2023/08/06 05:01:14;;;;;;;2.35;1.75;;;;;;;19.26;78.42;93556.78;5104733;28;20058;-78
2023/08/06 05:03:39;;;;;;;3.33;1.80;;;;;;;19.20;79.00;93542.63;5097680;27;20032;-78
2023/08/06 05:06:05;;;;;;;3.92;2.10;;;;;;;19.23;79.56;93556.41;5111726;27;20543;-77
2023/08/06 05:08:30;;;;;;;3.30;2.10;;;;;;;19.25;78.15;93541.16;5131298;27;20020;-78
2023/08/06 05:10:56;;;;;;;2.97;2.05;;;;;;;19.37;78.48;93519.25;5132265;27;20039;-78
2023/08/06 05:13:21;;;;;;;3.85;2.20;;;;;;;19.58;78.43;93559.41;5112926;27;20393;-79
2023/08/06 05:15:47;;;;;;;5.38;2.75;;;;;;;19.53;77.56;93573.25;5133640;27;20035;-78
2023/08/06 05:18:12;;;;;;;3.78;2.50;;;;;;;19.59;76.56;93567.13;5131413;27;20501;-78
2023/08/06 05:20:41;;;;;;;3.13;2.53;;;;;;;19.38;78.22;93560.34;5115684;27;20031;-77
2023/08/06 05:23:06;;;;;;;4.00;3.10;;;;;;;19.39;79.20;93561.16;5108363;27;20047;-78
2023/08/06 05:25:34;;;;;;;4.72;2.78;;;;;;;19.53;78.90;93570.59;5123933;27;20089;-78
2023/08/06 05:28:01;;;;;;;4.80;2.85;;;;;;;19.46;78.34;93572.47;5101999;28;20081;-78
2023/08/06 05:30:26;;;;;;;5.75;2.83;;;;;;;19.35;78.03;93541.53;5095766;28;20055;-78
2023/08/06 05:32:52;;;;;;;3.60;2.65;;;;;;;19.64;76.84;93574.41;5123025;27;20039;-77
2023/08/06 05:35:17;;;;;;;6.03;3.00;;;;;;;19.54;77.05;93559.03;5117993;27;20038;-79
2023/08/06 05:37:43;;;;;;;3.60;2.70;;;;;;;19.46;77.28;93564.56;5125433;27;20031;-78
2023/08/06 05:40:14;;;;;;;4.03;2.70;;;;;;;19.03;78.97;93548.56;5097009;27;20031;-78
2023/08/06 05:42:41;;;;;;;4.10;3.42;;;;;;;19.24;80.84;93558.78;5143316;27;20023;-77
2023/08/06 05:45:07;;;;;;;4.97;3.30;;;;;;;19.22;80.23;93566.09;5109529;27;20034;-75
2023/08/06 05:47:33;;;;;;;4.63;3.30;;;;;;;19.02;81.07;93549.59;5131806;27;20040;-77
2023/08/06 05:49:58;;;;;;;5.35;2.90;;;;;;;19.09;80.91;93551.19;5110583;27;20055;-78
2023/08/06 05:52:24;;;;;;;3.70;3.25;;;;;;;19.13;80.90;93548.94;5129716;27;20043;-76
2023/08/06 05:54:49;;;;;;;4.38;3.30;;;;;;;19.26;79.46;93548.88;5092912;28;20022;-76
2023/08/06 05:57:15;;;;;;;5.80;4.00;;;;;;;19.42;79.00;93547.56;5094232;28;20084;-77
2023/08/06 05:59:40;;;;;;;4.78;3.90;;;;;;;19.43;79.05;93565.78;5128130;27;20026;-77
2023/08/06 06:02:06;;;;;;;5.25;4.25;;;;;;;19.54;78.53;93564.31;5113296;27;20042;-78
2023/08/06 06:04:31;;;;;;;5.18;4.68;;;;;;;19.28;80.96;93551.28;5100218;27;20805;-74
2023/08/06 06:06:57;;;;;;;8.07;4.85;;;;;;;19.30;80.62;93578.22;5127244;27;20035;-74
2023/08/06 06:09:22;;;;;;;4.82;4.30;;;;;;;19.35;80.63;93576.56;5125855;27;20030;-74
2023/08/06 06:11:49;;;;;;;6.10;4.93;;;;;;;18.99;81.63;93524.50;5094570;27;20038;-73
2023/08/06 06:14:16;;;;;;;7.45;5.57;;;;;;;19.24;79.63;93542.19;5116157;27;20034;-75
2023/08/06 06:16:41;;;;;;;6.45;5.53;;;;;;;18.92;79.70;93502.69;5092371;28;20036;-74
2023/08/06 06:19:06;;;;;;;6.97;5.70;;;;;;;19.38;80.03;93525.31;5128103;27;20034;-74
2023/08/06 06:21:32;;;;;;;7.80;5.55;;;;;;;19.83;79.31;93604.28;5110609;28;20032;-73
2023/08/06 06:23:57;;;;;;;7.20;5.90;;;;;;;19.85;80.41;93618.03;5096324;28;20424;-73
2023/08/06 06:26:23;;;;;;;6.25;5.45;;;;;;;19.55;78.65;93528.25;5112076;27;20040;-73
2023/08/06 06:28:48;;;;;;;5.75;5.13;;;;;;;19.75;78.54;93550.03;5120301;27;20054;-75
2023/08/06 06:31:14;;;;;;;7.82;6.63;;;;;;;20.16;77.22;93621.69;5095312;27;20039;-73
2023/08/06 06:33:39;;;;;;;6.57;5.97;;;;;;;20.12;77.43;93599.44;5127625;27;20020;-73
2023/08/06 06:36:07;;;;;;;6.68;6.03;;;;;;;20.19;76.35;93624.69;5129728;27;20054;-75
2023/08/06 06:38:33;;;;;;;8.60;6.55;;;;;;;19.55;77.45;93570.38;5106860;28;20066;-77
2023/08/06 06:40:58;;;;;;;9.10;6.68;;;;;;;19.35;78.13;93576.56;5107739;27;20031;-75
2023/08/06 06:43:24;;;;;;;7.43;6.63;;;;;;;19.77;78.78;93628.84;5132023;27;20030;-74
2023/08/06 06:45:53;;;;;;;7.53;6.72;;;;;;;19.45;79.27;93607.72;5122905;27;20055;-75
2023/08/06 06:48:19;;;;;;;7.13;6.40;;;;;;;19.82;79.17;93645.63;5116700;27;20027;-76
2023/08/06 06:50:48;;;;;;;8.00;5.38;;;;;;;19.25;78.15;93635.94;5132579;27;20037;-73
2023/08/06 06:53:13;;;;;;;8.38;6.47;;;;;;;18.95;78.93;93581.19;5123734;27;20504;-73
2023/08/06 06:55:38;;;;;;;6.10;5.32;;;;;;;19.07;78.35;93608.47;5111957;27;20043;-73
2023/08/06 06:58:04;;;;;;;7.18;5.30;;;;;;;18.84;81.12;93637.09;5113492;27;20038;-73
2023/08/06 07:00:29;;;;;;;8.80;5.32;;;;;;;19.34;79.98;93661.03;5130923;27;20043;-72
2023/08/06 07:02:55;;;;;;;5.57;5.03;;;;;;;18.92;80.32;93595.59;5112070;27;20023;-72
2023/08/06 07:05:20;;;;;;;5.38;4.55;;;;;;;19.32;80.05;93661.22;5130347;27;20034;-73
2023/08/06 07:07:46;;;;;;;4.90;4.28;;;;;;;19.29;78.46;93639.78;5129462;27;20092;-74
2023/08/06 07:10:11;;;;;;;6.80;4.45;;;;;;;19.49;79.44;93664.19;5097014;27;20413;-74
2023/08/06 07:12:37;;;;;;;6.10;4.50;;;;;;;19.20;79.05;93618.97;5113895;27;20408;-73
2023/08/06 07:15:07;;;;;;;5.32;3.50;;;;;;;19.11;75.58;93628.13;5131038;27;20035;-73
2023/08/06 07:17:32;;;;;;;4.57;3.57;;;;;;;19.07;77.10;93624.28;5084371;28;20024;-74
2023/08/06 07:19:57;;;;;;;4.78;3.40;;;;;;;19.32;76.15;93627.00;5110452;28;20308;-73
2023/08/06 07:22:23;;;;;;;5.00;4.18;;;;;;;19.66;79.30;93653.22;5110462;28;20413;-73
2023/08/06 07:24:48;;;;;;;5.28;3.40;;;;;;;20.01;76.47;93672.88;5110332;28;20448;-73
2023/08/06 07:27:14;;;;;;;4.03;3.55;;;;;;;19.92;75.75;93666.25;5110540;28;20129;-74
2023/08/06 07:29:39;;;;;;;3.78;3.35;;;;;;;20.34;75.40;93669.22;5093270;28;20028;-72
2023/08/06 07:32:06;;;;;;;4.97;3.70;;;;;;;20.48;73.33;93665.44;5113725;27;20093;-72
2023/08/06 07:34:32;;;;;;;7.28;4.00;;;;;;;20.65;74.14;93649.91;5126908;27;20030;-73
2023/08/06 07:36:57;;;;;;;3.80;3.35;;;;;;;20.67;66.85;93613.56;5093348;28;20023;-73
2023/08/06 07:39:23;;;;;;;4.32;3.47;;;;;;;21.01;64.70;93626.44;5076168;28;20031;-73
2023/08/06 07:41:49;;;;;;;5.35;3.00;;;;;;;21.18;67.02;93596.56;5093342;28;20039;-73
2023/08/06 07:44:15;;;;;;;3.55;2.78;;;;;;;21.89;59.15;93659.50;5094974;28;20480;-77
2023/08/06 07:46:40;;;;;;;3.88;2.60;;;;;;;22.17;58.54;93662.34;5118714;27;20545;-76
2023/08/06 07:49:06;;;;;;;4.70;2.55;;;;;;;22.28;57.43;93666.09;5115162;27;20134;-76
2023/08/06 07:51:31;;;;;;;3.05;2.13;;;;;;;22.31;56.40;93588.94;5112980;28;20041;-78
2023/08/06 07:53:57;;;;;;;3.42;2.45;;;;;;;22.55;60.04;93594.25;5131341;27;20039;-77
2023/08/06 07:56:22;;;;;;;5.57;2.47;;;;;;;23.09;55.75;93664.56;5131688;27;20047;-76
2023/08/06 07:58:47;;;;;;;4.57;2.53;;;;;;;23.34;58.20;93652.91;5131456;27;20023;-76
2023/08/06 08:01:13;;;;;;;2.95;2.20;;;;;;;23.33;57.65;93640.72;5131358;27;20465;-77
2023/08/06 08:03:39;;;;;;;4.30;2.45;;;;;;;23.41;55.11;93649.09;5131320;27;20019;-79
2023/08/06 08:06:04;;;;;;;2.75;2.35;;;;;;;23.57;54.66;93644.13;5131416;27;20039;-76
2023/08/06 08:08:30;;;;;;;3.78;2.40;;;;;;;23.30;54.04;93575.75;5132680;27;20024;-77
2023/08/06 08:10:55;;;;;;;4.25;2.65;;;;;;;23.98;54.13;93647.53;5135464;27;20047;-76
2023/08/06 08:13:21;;;;;;;3.08;2.40;;;;;;;23.65;51.61;93603.97;5135735;27;20519;-77
2023/08/06 08:15:46;;;;;;;4.65;2.40;;;;;;;23.75;52.74;93592.78;5135860;27;20031;-77
2023/08/06 08:18:12;;;;;;;2.72;2.30;;;;;;;24.08;50.45;93639.78;5135495;27;20047;-74
2023/08/06 08:20:37;;;;;;;4.05;2.20;;;;;;;24.36;53.29;93641.59;5135532;27;20054;-75
2023/08/06 08:23:03;;;;;;;5.13;2.22;;;;;;;24.24;50.08;93585.16;5133047;27;20023;-76
2023/08/06 08:25:28;;;;;;;2.78;2.47;;;;;;;24.26;48.96;93593.66;5133625;27;20035;-76
2023/08/06 08:27:54;;;;;;;5.53;2.38;;;;;;;24.27;49.44;93600.56;5113311;28;20047;-76
2023/08/06 08:30:20;;;;;;;3.75;2.25;;;;;;;24.25;49.37;93587.53;5096442;28;20058;-77
2023/08/06 08:32:46;;;;;;;3.17;2.30;;;;;;;24.82;48.35;93654.78;5114595;28;20020;-75
2023/08/06 08:35:12;;;;;;;2.65;2.40;;;;;;;24.95;49.94;93660.56;5113767;28;20049;-75
2023/08/06 08:37:38;;;;;;;4.30;2.45;;;;;;;24.96;47.86;93650.75;5096612;28;20405;-79
2023/08/06 08:40:06;;;;;;;2.92;2.40;;;;;;;24.90;47.87;93651.72;5114364;28;20071;-77
2023/08/06 08:42:31;;;;;;;4.18;3.30;;;;;;;24.42;47.12;93576.91;5114551;28;20548;-79
2023/08/06 08:44:57;;;;;;;3.60;2.88;;;;;;;24.78;47.59;93608.53;5119536;27;20042;-82
2023/08/06 08:47:22;;;;;;;3.75;2.78;;;;;;;24.58;46.69;93585.16;5117675;27;20023;-82
2023/08/06 08:49:48;;;;;;;3.65;2.78;;;;;;;24.66;47.66;93568.81;5117007;27;20044;-77
2023/08/06 08:52:13;;;;;;;3.47;2.63;;;;;;;24.88;45.59;93577.63;5121594;27;20027;-78
2023/08/06 08:54:39;;;;;;;4.75;2.88;;;;;;;24.95;47.71;93551.69;5127480;27;20031;-80
2023/08/06 08:57:04;;;;;;;4.07;2.85;;;;;;;25.13;46.17;93576.31;5123271;27;20075;-81
2023/08/06 08:59:30;;;;;;;3.05;2.33;;;;;;;25.56;45.74;93618.09;5112199;27;20027;-77
2023/08/06 09:01:55;;;;;;;4.35;2.38;;;;;;;25.12;44.52;93548.97;5114918;27;20088;-80
2023/08/06 09:04:21;;;;;;;3.03;2.30;;;;;;;25.22;44.50;93600.66;5130292;27;20027;-78
2023/08/06 09:06:50;;;;;;;3.55;2.38;;;;;;;25.03;46.33;93544.34;5115565;27;20038;-79
2023/08/06 09:09:17;;;;;;;4.28;2.70;;;;;;;25.53;46.21;93621.25;5121659;27;20106;-80
2023/08/06 09:11:43;;;;;;;3.15;2.35;;;;;;;25.09;44.41;93554.78;5132756;27;20035;-79
2023/08/06 09:14:09;;;;;;;3.67;2.40;;;;;;;25.52;45.16;93608.19;5133394;27;20015;-79
2023/08/06 09:16:35;;;;;;;5.15;2.60;;;;;;;25.27;46.03;93567.00;5133134;27;20053;-80
2023/08/06 09:19:10;;;;;;;4.07;2.92;;;;;;;25.29;44.16;93556.91;5118503;27;20031;-80
2023/08/06 09:21:39;;;;;;;3.45;2.90;;;;;;;25.62;45.36;93595.81;5120265;27;20118;-80
2023/08/06 09:24:11;;;;;;;3.95;2.95;;;;;;;25.38;44.68;93605.09;5121588;27;20033;-77
2023/08/06 09:26:38;;;;;;;4.13;2.80;;;;;;;25.37;44.30;93593.66;5129057;27;20028;-81
2023/08/06 09:29:05;;;;;;;3.40;2.67;;;;;;;25.03;43.89;93523.09;5110267;27;20027;-80
2023/08/06 09:31:44;;;;;;;5.10;2.58;;;;;;;25.39;44.92;93596.88;5134162;27;20035;-76
2023/08/06 09:34:30;;;;;;;3.30;2.58;;;;;;;25.22;43.88;93590.03;5125454;27;20019;-83
2023/08/06 09:36:55;;;;;;;5.55;2.70;;;;;;;25.35;47.01;93601.09;5123413;27;20130;-83
2023/08/06 09:39:26;;;;;;;5.13;2.75;;;;;;;25.40;43.87;93595.81;5131674;27;20597;-83
2023/08/06 09:41:55;;;;;;;4.82;2.75;;;;;;;25.31;42.93;93581.38;5131615;27;20027;-83
2023/08/06 09:44:24;;;;;;;2.92;2.13;;;;;;;25.22;42.79;93569.59;5110732;27;20151;-88
2023/08/06 09:46:51;;;;;;;2.92;2.03;;;;;;;25.30;43.55;93566.50;5111865;28;20031;-84
2023/08/06 09:49:32;;;;;;;2.88;2.00;;;;;;;25.46;42.90;93554.16;5116039;27;20047;-84
2023/08/06 09:51:59;;;;;;;4.22;2.25;;;;;;;25.74;41.96;93592.22;5132459;27;20095;-87
2023/08/06 09:54:26;;;;;;;3.00;2.35;;;;;;;25.90;42.55;93590.53;5129281;27;20411;-85
2023/08/06 09:56:55;;;;;;;2.58;2.17;;;;;;;25.99;41.29;93591.69;5132008;27;20031;-88
2023/08/06 09:59:21;;;;;;;3.53;2.05;;;;;;;25.99;41.25;93595.19;5103829;28;20027;-83
2023/08/06 10:01:46;;;;;;;3.58;2.20;;;;;;;25.78;41.43;93574.72;5114608;27;20031;-81
2023/08/06 10:04:15;;;;;;;5.10;2.20;;;;;;;25.82;41.21;93584.56;5095384;28;20106;-87
2023/08/06 10:06:41;;;;;;;3.42;2.03;;;;;;;25.93;41.12;93596.16;5089351;27;20481;-79
2023/08/06 10:09:08;;;;;;;4.60;2.53;;;;;;;25.96;40.61;93603.63;5130232;27;20026;-84
2023/08/06 10:11:33;;;;;;;4.13;2.75;;;;;;;25.68;40.97;93601.19;5106759;28;20028;-75
2023/08/06 10:14:10;;;;;;;3.28;2.20;;;;;;;25.51;41.38;93603.94;5131003;27;20030;-76
2023/08/06 10:16:36;;;;;;;3.63;2.33;;;;;;;25.63;42.26;93607.25;5134687;27;20058;-78
2023/08/06 10:19:02;;;;;;;3.75;2.45;;;;;;;25.57;42.50;93613.56;5132854;27;20059;-80
2023/08/06 10:21:30;;;;;;;3.67;2.45;;;;;;;25.42;42.06;93609.69;5125720;27;20035;-81
2023/08/06 10:23:55;;;;;;;3.35;2.28;;;;;;;25.48;42.92;93609.75;5132743;27;20055;-79
2023/08/06 10:26:28;;;;;;;3.55;2.22;;;;;;;25.26;41.09;93602.56;5134170;27;20058;-81
2023/08/06 10:28:53;;;;;;;2.97;2.03;;;;;;;25.45;41.91;93613.69;5132803;27;20027;-82
2023/08/06 10:31:18;;;;;;;3.42;2.35;;;;;;;25.44;42.70;93604.13;5116708;27;20150;-82
2023/08/06 10:33:47;;;;;;;4.20;2.22;;;;;;;25.22;42.39;93593.50;5106653;27;20038;-81
2023/08/06 10:36:16;;;;;;;3.67;2.40;;;;;;;25.18;42.93;93624.25;5114456;27;20031;-81
2023/08/06 10:38:45;;;;;;;5.28;2.42;;;;;;;24.98;42.51;93622.91;5131440;27;20030;-78
2023/08/06 10:41:27;;;;;;;2.63;2.13;;;;;;;25.13;43.44;93619.66;5131565;27;20461;-83
2023/08/06 10:44:01;;;;;;;3.10;2.20;;;;;;;24.91;42.93;93598.38;5139455;27;20025;-84
2023/08/06 10:46:27;;;;;;;3.88;2.05;;;;;;;25.13;42.89;93619.66;5123994;27;20103;-86
2023/08/06 10:48:53;;;;;;;2.75;1.95;;;;;;;24.83;43.06;93613.94;5114238;27;20051;-85
2023/08/06 10:51:18;;;;;;;4.28;2.33;;;;;;;24.66;43.36;93620.06;5111012;27;20483;-81
2023/08/06 10:53:48;;;;;;;2.50;2.13;;;;;;;24.78;42.93;93638.53;5119082;27;20035;-73
2023/08/06 10:56:14;;;;;;;3.13;2.47;;;;;;;24.82;43.54;93638.84;5126833;27;20027;-73
2023/08/06 10:58:40;;;;;;;3.08;2.40;;;;;;;24.87;43.85;93647.69;5121936;27;20027;-73
2023/08/06 11:01:05;;;;;;;3.55;2.00;;;;;;;24.76;43.90;93645.94;5102404;27;20032;-72
2023/08/06 11:03:31;;;;;;;4.22;2.30;;;;;;;24.78;43.89;93654.47;5103979;27;20035;-73
2023/08/06 11:05:57;;;;;;;3.85;2.25;;;;;;;24.86;43.19;93659.38;5127090;27;20030;-73
2023/08/06 11:08:26;;;;;;;3.03;2.28;;;;;;;24.56;43.65;93641.13;5125965;27;20027;-73
2023/08/06 11:10:51;;;;;;;3.80;2.70;;;;;;;24.73;44.04;93654.41;5123755;27;20035;-73
2023/08/06 11:13:18;;;;;;;4.45;3.00;;;;;;;24.79;44.10;93669.34;5131163;27;20031;-73
2023/08/06 11:15:44;;;;;;;4.47;2.75;;;;;;;24.76;43.95;93664.53;5104710;27;21320;-73
2023/08/06 11:18:09;;;;;;;3.83;3.03;;;;;;;24.74;43.66;93661.34;5104217;28;20024;-73
2023/08/06 11:20:35;;;;;;;4.53;2.78;;;;;;;24.93;44.19;93661.84;5108157;27;20046;-71
2023/08/06 11:23:00;;;;;;;3.65;2.45;;;;;;;24.90;43.55;93633.94;5109190;27;20042;-75
2023/08/06 11:25:26;;;;;;;5.70;2.90;;;;;;;25.25;43.35;93669.25;5108343;27;20034;-73
2023/08/06 11:27:51;;;;;;;3.35;2.60;;;;;;;25.18;43.42;93649.00;5122897;27;20120;-73
2023/08/06 11:30:17;;;;;;;3.88;2.40;;;;;;;25.31;44.31;93658.44;5107153;27;20046;-73